createdAt,value
2023-03-01T00:00:22.521Z,18.20
2023-03-01T00:02:50.331Z,18.97
2023-03-01T00:05:17.511Z,14.23
2023-03-01T00:07:45.425Z,16.23
2023-03-01T00:10:12.897Z,16.20
2023-03-01T00:12:41.985Z,15.57
2023-03-01T00:15:09.915Z,13.67
2023-03-01T00:17:37.202Z,14.67
2023-03-01T00:20:04.870Z,12.37
2023-03-01T00:22:31.937Z,19.07
2023-03-01T00:24:59.042Z,16.17
2023-03-01T00:27:26.866Z,18.60
2023-03-01T00:29:56.024Z,14.10
2023-03-01T00:32:23.152Z,14.03
2023-03-01T00:34:55.112Z,14.80
2023-03-01T00:37:22.343Z,13.50
2023-03-01T00:39:50.892Z,16.70
2023-03-01T00:42:18.451Z,13.47
2023-03-01T00:44:45.977Z,16.43
2023-03-01T00:47:15.140Z,15.43
2023-03-01T00:49:42.104Z,20.33
2023-03-01T00:52:11.700Z,15.70
2023-03-01T00:54:39.243Z,13.77
2023-03-01T00:57:06.878Z,13.93
2023-03-01T00:59:34.419Z,18.43
2023-03-01T01:02:01.966Z,13.27
2023-03-01T01:04:31.432Z,17.10
2023-03-01T01:06:58.987Z,15.27
2023-03-01T01:09:26.129Z,18.70
2023-03-01T01:11:54.044Z,19.23
2023-03-01T01:14:21.458Z,16.57
2023-03-01T01:16:48.504Z,15.87
2023-03-01T01:19:17.325Z,21.23
2023-03-01T01:21:46.961Z,15.67
2023-03-01T01:24:14.484Z,14.17
2023-03-01T01:26:42.416Z,17.03
2023-03-01T01:29:10.174Z,15.93
2023-03-01T01:31:38.959Z,13.73
2023-03-01T01:34:08.185Z,18.90
2023-03-01T01:36:40.740Z,13.13
2023-03-01T01:39:14.259Z,17.60
2023-03-01T01:41:43.502Z,14.57
2023-03-01T01:44:15.113Z,13.87
2023-03-01T01:46:45.799Z,18.37
2023-03-01T01:49:24.851Z,15.20
2023-03-01T01:52:01.647Z,15.87
2023-03-01T01:54:35.659Z,16.17
2023-03-01T01:57:08.899Z,14.90
2023-03-01T01:59:36.570Z,19.38
2023-03-01T02:02:07.702Z,15.30
2023-03-01T02:04:35.932Z,14.53
2023-03-01T02:07:07.871Z,16.90
2023-03-01T02:09:36.956Z,18.60
2023-03-01T02:12:17.816Z,16.50
2023-03-01T02:14:47.550Z,15.03
2023-03-01T02:17:17.149Z,17.33
2023-03-01T02:20:00.110Z,20.37
2023-03-01T02:22:31.188Z,17.70
2023-03-01T02:25:11.247Z,25.80
2023-03-01T02:27:51.517Z,20.27
2023-03-01T02:30:22.035Z,16.70
2023-03-01T02:32:50.640Z,17.87
2023-03-01T02:35:20.585Z,17.80
2023-03-01T02:37:49.148Z,18.90
2023-03-01T02:40:19.514Z,19.87
2023-03-01T02:42:52.005Z,18.27
2023-03-01T02:45:20.440Z,16.33
2023-03-01T02:47:47.701Z,19.80
2023-03-01T02:50:44.820Z,20.43
2023-03-01T02:53:17.015Z,20.40
2023-03-01T02:55:44.359Z,21.10
2023-03-01T02:58:11.578Z,19.37
2023-03-01T03:00:46.696Z,21.87
2023-03-01T03:03:16.180Z,21.87
2023-03-01T03:05:43.178Z,18.00
2023-03-01T03:08:10.598Z,19.63
2023-03-01T03:10:39.076Z,20.33
2023-03-01T03:13:08.611Z,23.13
2023-03-01T03:15:37.099Z,23.20
2023-03-01T03:18:07.894Z,19.07
2023-03-01T03:20:35.778Z,25.67
2023-03-01T03:23:02.781Z,25.63
2023-03-01T03:25:30.453Z,33.33
2023-03-01T03:27:58.027Z,27.83
2023-03-01T03:30:27.269Z,31.10
2023-03-01T03:32:54.869Z,28.27
2023-03-01T03:35:25.825Z,27.73
2023-03-01T03:38:02.754Z,22.57
2023-03-01T03:40:32.211Z,23.33
2023-03-01T03:42:59.247Z,25.27
2023-03-01T03:45:26.651Z,22.63
2023-03-01T03:47:53.690Z,24.70
2023-03-01T03:50:20.735Z,24.27
2023-03-01T03:52:49.268Z,24.93
2023-03-01T03:55:20.358Z,26.50
2023-03-01T03:57:52.696Z,22.47
2023-03-01T04:00:22.013Z,22.60
2023-03-01T04:02:50.074Z,23.57
2023-03-01T04:05:20.048Z,21.97
2023-03-01T04:07:48.427Z,30.93
2023-03-01T04:10:17.965Z,40.77
2023-03-01T04:12:45.174Z,27.70
2023-03-01T04:15:16.285Z,27.53
2023-03-01T04:17:45.083Z,22.67
2023-03-01T04:20:13.628Z,22.43
2023-03-01T04:22:41.558Z,24.30
2023-03-01T04:25:10.496Z,27.33
2023-03-01T04:27:37.585Z,27.47
2023-03-01T04:30:05.324Z,27.17
2023-03-01T04:32:32.850Z,24.67
2023-03-01T04:35:00.193Z,22.63
2023-03-01T04:37:27.709Z,26.00
2023-03-01T04:39:54.757Z,24.80
2023-03-01T04:42:23.248Z,26.90
2023-03-01T04:44:52.330Z,22.87
2023-03-01T04:47:19.434Z,21.10
2023-03-01T04:49:46.533Z,26.70
2023-03-01T04:52:13.582Z,24.23
2023-03-01T04:54:40.710Z,27.47
2023-03-01T04:57:07.711Z,26.40
2023-03-01T04:59:37.264Z,24.57
2023-03-01T05:02:04.363Z,25.37
2023-03-01T05:04:32.098Z,27.77
2023-03-01T05:06:59.890Z,24.03
2023-03-01T05:09:26.872Z,29.87
2023-03-01T05:11:53.895Z,21.57
2023-03-01T05:14:20.790Z,27.27
2023-03-01T05:16:49.133Z,29.30
2023-03-01T05:19:23.849Z,21.23
2023-03-01T05:22:02.775Z,25.20
2023-03-01T05:24:31.347Z,26.37
2023-03-01T05:26:58.655Z,25.00
2023-03-01T05:29:27.491Z,24.67
2023-03-01T05:31:57.084Z,23.33
2023-03-01T05:34:25.330Z,22.43
2023-03-01T05:36:54.207Z,22.13
2023-03-01T05:39:22.525Z,20.10
2023-03-01T05:41:49.973Z,26.73
2023-03-01T05:44:17.050Z,24.43
2023-03-01T05:46:44.137Z,27.57
2023-03-01T05:49:14.466Z,24.37
2023-03-01T05:51:42.524Z,35.13
2023-03-01T05:54:09.843Z,28.33
2023-03-01T05:56:37.785Z,21.80
2023-03-01T05:59:06.153Z,23.10
2023-03-01T06:01:33.689Z,21.17
2023-03-01T06:04:01.139Z,22.17
2023-03-01T06:06:29.647Z,23.80
2023-03-01T06:08:56.951Z,24.00
2023-03-01T06:11:24.048Z,24.57
2023-03-01T06:13:51.041Z,29.20
2023-03-01T06:16:18.183Z,34.53
2023-03-01T06:18:45.374Z,25.07
2023-03-01T06:21:12.432Z,28.60
2023-03-01T06:23:41.012Z,29.77
2023-03-01T06:26:09.108Z,22.70
2023-03-01T06:28:36.354Z,25.67
2023-03-01T06:31:03.488Z,28.47
2023-03-01T06:33:30.605Z,23.83
2023-03-01T06:35:57.833Z,24.50
2023-03-01T06:38:26.016Z,29.53
2023-03-01T06:40:55.866Z,30.27
2023-03-01T06:43:23.087Z,24.50
2023-03-01T06:45:50.183Z,26.90
2023-03-01T06:48:17.667Z,25.73
2023-03-01T06:50:44.686Z,20.80
2023-03-01T06:53:11.848Z,26.40
2023-03-01T06:55:38.982Z,21.77
2023-03-01T06:58:07.708Z,22.07
2023-03-01T07:00:34.728Z,27.17
2023-03-01T07:03:03.621Z,32.90
2023-03-01T07:05:31.405Z,28.70
2023-03-01T07:07:58.576Z,26.33
2023-03-01T07:10:25.806Z,28.90
2023-03-01T07:12:55.942Z,35.20
2023-03-01T07:15:24.419Z,38.23
2023-03-01T07:17:51.839Z,33.00
2023-03-01T07:20:19.239Z,28.40
2023-03-01T07:22:46.246Z,37.20
2023-03-01T07:25:13.651Z,28.10
2023-03-01T07:27:43.094Z,24.03
2023-03-01T07:30:11.322Z,31.17
2023-03-01T07:32:39.858Z,31.80
2023-03-01T07:35:08.163Z,26.93
2023-03-01T07:37:35.315Z,29.27
2023-03-01T07:40:02.459Z,24.00
2023-03-01T07:42:29.450Z,26.83
2023-03-01T07:44:56.542Z,28.53
2023-03-01T07:47:23.522Z,22.40
2023-03-01T07:49:52.168Z,20.83
2023-03-01T07:52:19.119Z,19.10
2023-03-01T07:54:46.226Z,24.13
2023-03-01T07:57:13.281Z,18.87
2023-03-01T08:05:36.112Z,21.43
2023-03-01T08:08:03.028Z,19.67
2023-03-01T08:10:30.045Z,18.60
2023-03-01T08:12:57.005Z,16.47
2023-03-01T09:23:06.239Z,13.90
2023-03-01T09:36:41.725Z,9.90
2023-03-01T09:39:10.272Z,8.97
2023-03-01T09:41:50.282Z,10.90
2023-03-01T09:44:28.902Z,12.00
2023-03-01T09:46:58.154Z,13.63
2023-03-01T09:49:28.435Z,9.23
2023-03-01T09:52:04.374Z,10.43
2023-03-01T09:54:33.067Z,8.87
2023-03-01T09:57:12.735Z,7.03
2023-03-01T10:00:07.945Z,9.63
2023-03-01T10:02:40.581Z,11.17
2023-03-01T10:05:21.046Z,6.30
2023-03-01T10:08:00.382Z,10.07
2023-03-01T10:10:32.446Z,9.90
2023-03-01T10:13:04.733Z,7.87
2023-03-01T10:15:38.682Z,9.27
2023-03-01T10:18:11.194Z,7.83
2023-03-01T10:20:47.566Z,15.90
2023-03-01T10:23:14.685Z,6.90
2023-03-01T10:25:56.336Z,7.20
2023-03-01T10:28:27.573Z,12.07
2023-03-01T10:30:55.079Z,5.97
2023-03-01T10:33:24.672Z,8.27
2023-03-01T10:35:52.488Z,7.37
2023-03-01T10:38:21.576Z,5.53
2023-03-01T10:40:55.749Z,10.40
2023-03-01T10:43:23.497Z,9.20
2023-03-01T10:45:50.546Z,5.67
2023-03-01T10:48:20.371Z,7.17
2023-03-01T10:50:49.370Z,8.40
2023-03-01T10:53:30.448Z,13.30
2023-03-01T10:59:00.594Z,7.57
2023-03-01T11:01:30.813Z,7.83
2023-03-01T11:04:13.151Z,8.33
2023-03-01T11:06:41.624Z,9.60
2023-03-01T11:19:00.813Z,7.97
2023-03-01T11:21:31.476Z,16.17
2023-03-01T11:24:01.079Z,8.93
2023-03-01T11:26:33.123Z,5.90
2023-03-01T11:29:04.997Z,9.77
2023-03-01T11:31:33.562Z,8.43
2023-03-01T11:34:09.099Z,8.27
2023-03-01T11:36:49.782Z,9.13
2023-03-01T11:39:28.306Z,8.07
2023-03-01T11:42:19.951Z,8.20
2023-03-01T11:44:51.606Z,8.80
2023-03-01T11:47:32.288Z,8.17
2023-03-01T11:50:27.652Z,8.00
2023-03-01T11:53:07.157Z,7.10
2023-03-01T11:55:54.443Z,7.63
2023-03-01T12:01:12.851Z,8.05
2023-03-01T12:03:40.119Z,8.43
2023-03-01T12:06:25.256Z,9.23
2023-03-01T12:09:03.389Z,9.73
2023-03-01T12:11:45.141Z,7.87
2023-03-01T12:23:14.741Z,10.17
2023-03-01T12:25:53.637Z,9.53
2023-03-01T12:33:52.760Z,9.17
2023-03-01T12:36:47.234Z,7.70
2023-03-01T12:39:34.352Z,8.45
2023-03-01T12:42:13.603Z,9.40
2023-03-01T12:45:01.819Z,10.02
2023-03-01T12:47:46.241Z,8.50
2023-03-01T12:50:19.914Z,7.47
2023-03-01T12:55:56.043Z,7.03
2023-03-01T13:47:53.888Z,6.80
2023-03-01T13:50:24.027Z,7.10
2023-03-01T13:52:58.631Z,7.67
2023-03-01T13:55:30.521Z,10.33
2023-03-01T13:58:00.167Z,10.13
2023-03-01T14:06:14.010Z,8.33
2023-03-01T14:08:44.036Z,7.93
2023-03-01T14:12:08.174Z,7.90
2023-03-01T14:14:43.442Z,7.85
2023-03-01T14:17:30.633Z,9.35
2023-03-01T14:19:59.757Z,11.35
2023-03-01T14:22:30.360Z,7.40
2023-03-01T14:25:02.888Z,9.07
2023-03-01T14:27:35.239Z,9.00
2023-03-01T14:30:41.225Z,7.70
2023-03-01T14:33:20.989Z,11.00
2023-03-01T14:35:59.019Z,8.30
2023-03-01T14:38:33.977Z,8.43
2023-03-01T14:41:02.368Z,9.80
2023-03-01T14:49:13.806Z,7.03
2023-03-01T14:51:43.194Z,11.15
2023-03-01T14:54:22.614Z,9.23
2023-03-01T14:56:52.221Z,7.57
2023-03-01T14:59:23.462Z,9.52
2023-03-01T15:01:52.018Z,11.63
2023-03-01T15:04:21.542Z,11.57
2023-03-01T15:06:54.843Z,13.37
2023-03-01T15:09:24.067Z,11.38
2023-03-01T15:11:51.272Z,11.03
2023-03-01T15:14:41.538Z,8.02
2023-03-01T15:17:27.382Z,7.57
2023-03-01T15:19:54.990Z,14.80
2023-03-01T15:22:23.042Z,16.27
2023-03-01T15:24:51.909Z,10.27
2023-03-01T15:27:22.822Z,11.02
2023-03-01T15:29:53.306Z,9.65
2023-03-01T15:32:29.907Z,9.75
2023-03-01T15:34:57.777Z,9.43
2023-03-01T15:37:46.033Z,8.10
2023-03-01T15:40:32.382Z,9.13
2023-03-01T15:43:00.177Z,8.07
2023-03-01T15:48:19.047Z,12.50
2023-03-01T15:50:56.232Z,12.50
2023-03-01T15:53:23.390Z,8.88
2023-03-01T15:55:51.781Z,11.50
2023-03-01T15:58:21.589Z,8.47
2023-03-01T16:01:00.382Z,12.52
2023-03-01T16:03:31.309Z,9.93
2023-03-01T16:05:58.406Z,18.83
2023-03-01T16:08:50.342Z,13.10
2023-03-01T16:20:28.827Z,8.37
2023-03-01T16:23:01.199Z,9.18
2023-03-01T16:25:28.647Z,17.40
2023-03-01T16:27:56.527Z,11.33
2023-03-01T16:30:24.444Z,9.43
2023-03-01T16:32:52.085Z,11.70
2023-03-01T16:38:16.332Z,10.90
2023-03-01T16:40:48.701Z,10.83
2023-03-01T16:43:15.933Z,14.50
2023-03-01T16:45:45.658Z,27.33
2023-03-01T16:48:13.700Z,12.30
2023-03-01T16:50:40.765Z,15.80
2023-03-01T16:53:08.148Z,11.57
2023-03-01T16:55:38.925Z,9.07
2023-03-01T16:58:06.807Z,10.97
2023-03-01T17:05:56.023Z,9.23
2023-03-01T17:08:23.232Z,14.57
2023-03-01T17:13:41.392Z,10.53
2023-03-01T17:16:14.473Z,12.03
2023-03-01T17:18:41.639Z,11.50
2023-03-01T17:21:09.628Z,10.07
2023-03-01T17:23:38.790Z,10.80
2023-03-01T17:26:06.434Z,12.67
2023-03-01T17:28:36.181Z,9.33
2023-03-01T17:31:05.657Z,9.27
2023-03-01T17:33:34.136Z,11.57
2023-03-01T17:36:02.029Z,10.60
2023-03-01T17:38:29.263Z,16.47
2023-03-01T17:40:59.877Z,16.40
2023-03-01T17:43:27.546Z,15.20
2023-03-01T17:45:54.877Z,14.57
2023-03-01T17:48:22.289Z,10.20
2023-03-01T17:50:50.850Z,19.77
2023-03-01T17:53:17.819Z,13.30
2023-03-01T17:58:26.916Z,13.27
2023-03-01T18:00:54.102Z,12.17
2023-03-01T18:06:00.664Z,12.20
2023-03-01T18:08:27.720Z,11.23
2023-03-01T18:10:58.813Z,12.40
2023-03-01T18:13:26.085Z,18.17
2023-03-01T18:15:53.025Z,17.53
2023-03-01T18:18:20.041Z,11.50
2023-03-01T18:20:56.131Z,13.13
2023-03-01T18:23:24.996Z,14.00
2023-03-01T18:25:53.288Z,17.10
2023-03-01T18:28:21.281Z,11.27
2023-03-01T18:30:49.376Z,12.73
2023-03-01T18:33:16.574Z,10.37
2023-03-01T18:35:43.549Z,13.43
2023-03-01T18:38:10.526Z,12.30
2023-03-01T18:40:40.719Z,11.57
2023-03-01T18:43:07.706Z,12.67
2023-03-01T18:45:34.812Z,13.63
2023-03-01T18:48:02.057Z,11.87
2023-03-01T18:50:29.719Z,14.10
2023-03-01T18:52:57.725Z,17.93
2023-03-01T18:55:24.719Z,22.07
2023-03-01T18:57:54.571Z,15.93
2023-03-01T19:00:22.597Z,33.03
2023-03-01T19:02:49.589Z,14.30
2023-03-01T19:05:17.568Z,25.50
2023-03-01T19:07:44.603Z,24.50
2023-03-01T19:10:12.171Z,23.70
2023-03-01T19:12:39.097Z,28.10
2023-03-01T19:15:08.310Z,19.67
2023-03-01T19:17:35.452Z,20.57
2023-03-01T19:20:02.501Z,20.23
2023-03-01T19:22:29.623Z,15.97
2023-03-01T19:24:56.647Z,16.77
2023-03-01T19:27:23.665Z,12.93
2023-03-01T19:29:50.761Z,13.93
2023-03-01T19:32:19.309Z,16.13
2023-03-01T19:34:46.892Z,16.37
2023-03-01T19:37:14.004Z,18.70
2023-03-01T19:39:43.000Z,17.33
2023-03-01T19:42:10.174Z,12.17
2023-03-01T19:44:38.231Z,15.43
2023-03-01T19:47:05.781Z,13.50
2023-03-01T19:49:37.474Z,13.70
2023-03-01T19:52:04.735Z,16.47
2023-03-01T19:54:31.854Z,16.73
2023-03-01T19:57:00.588Z,14.90
2023-03-01T19:59:28.530Z,14.17
2023-03-01T20:01:56.214Z,17.10
2023-03-01T20:04:23.552Z,18.17
2023-03-01T20:06:52.166Z,16.03
2023-03-01T20:09:22.187Z,15.70
2023-03-01T20:11:50.627Z,16.67
2023-03-01T20:14:17.780Z,13.90
2023-03-01T20:16:44.912Z,21.23
2023-03-01T20:19:12.009Z,14.27
2023-03-01T20:21:39.169Z,22.27
2023-03-01T20:24:08.576Z,13.87
2023-03-01T20:26:36.694Z,17.07
2023-03-01T20:29:03.713Z,19.93
2023-03-01T20:31:30.781Z,21.23
2023-03-01T20:33:59.196Z,15.30
2023-03-01T20:36:27.389Z,15.67
2023-03-01T20:38:54.678Z,16.67
2023-03-01T20:41:26.520Z,17.07
2023-03-01T20:43:58.732Z,17.53
2023-03-01T20:46:26.943Z,21.23
2023-03-01T20:48:54.548Z,19.40
2023-03-01T20:51:22.309Z,16.43
2023-03-01T20:53:49.568Z,20.30
2023-03-01T20:56:17.774Z,22.83
2023-03-01T20:58:46.265Z,22.03
2023-03-01T21:01:17.275Z,25.80
2023-03-01T21:03:44.912Z,26.30
2023-03-01T21:06:12.366Z,16.93
2023-03-01T21:08:39.424Z,18.13
2023-03-01T21:11:07.428Z,17.13
2023-03-01T21:13:35.203Z,19.90
2023-03-01T21:16:07.825Z,16.30
2023-03-01T21:18:37.025Z,16.17
2023-03-01T21:21:06.223Z,22.57
2023-03-01T21:23:35.966Z,29.77
2023-03-01T21:26:05.347Z,24.70
2023-03-01T21:28:33.499Z,17.77
2023-03-01T21:31:09.985Z,17.73
2023-03-01T21:33:38.069Z,18.83
2023-03-01T21:36:07.416Z,24.97
2023-03-01T21:38:36.150Z,38.60
2023-03-01T21:41:06.223Z,28.13
2023-03-01T21:43:33.857Z,23.17
2023-03-01T21:48:35.637Z,21.00
2023-03-01T21:51:02.943Z,26.30
2023-03-01T21:53:32.800Z,29.60
2023-03-01T21:56:00.503Z,29.80
2023-03-01T21:58:28.973Z,26.57
2023-03-01T22:00:56.329Z,25.10
2023-03-01T22:03:23.764Z,26.53
2023-03-01T22:06:00.246Z,21.23
2023-03-01T22:08:28.406Z,26.50
2023-03-01T22:10:55.481Z,23.13
2023-03-01T22:13:22.430Z,20.53
2023-03-01T22:15:49.436Z,26.40
2023-03-01T22:18:16.596Z,22.13
2023-03-01T22:20:43.546Z,26.00
2023-03-01T22:23:11.915Z,24.93
2023-03-01T22:25:42.540Z,20.67
2023-03-01T22:28:09.802Z,21.37
2023-03-01T22:30:36.832Z,24.30
2023-03-01T22:33:03.811Z,21.73
2023-03-01T22:35:31.125Z,22.23
2023-03-01T22:37:58.148Z,22.30
2023-03-01T22:40:26.619Z,24.90
2023-03-01T22:42:54.540Z,18.63
2023-03-01T22:45:21.574Z,21.47
2023-03-01T22:47:48.587Z,22.73
2023-03-01T22:50:15.803Z,20.40
2023-03-01T22:52:42.849Z,21.73
2023-03-01T22:55:10.640Z,20.00
2023-03-01T22:57:39.213Z,20.23
2023-03-01T23:00:13.180Z,22.73
2023-03-01T23:02:43.401Z,39.00
2023-03-01T23:05:11.036Z,25.37
2023-03-01T23:07:37.965Z,24.83
2023-03-01T23:10:06.084Z,23.43
2023-03-01T23:12:33.364Z,22.47
2023-03-01T23:15:01.832Z,19.80
2023-03-01T23:17:28.753Z,18.97
2023-03-01T23:19:55.856Z,19.00
2023-03-01T23:22:23.064Z,16.43
2023-03-01T23:24:49.982Z,21.43
2023-03-01T23:27:17.453Z,20.73
2023-03-01T23:29:45.173Z,18.23
2023-03-01T23:32:15.024Z,19.13
2023-03-01T23:34:43.871Z,16.73
2023-03-01T23:37:11.119Z,23.23
2023-03-01T23:39:38.324Z,23.63
2023-03-01T23:42:05.753Z,20.40
2023-03-01T23:44:33.203Z,20.67
2023-03-01T23:47:00.186Z,18.50
2023-03-01T23:49:28.884Z,19.63
2023-03-01T23:51:56.014Z,19.27
2023-03-01T23:54:24.518Z,17.73
2023-03-01T23:56:51.792Z,21.50
2023-03-01T23:59:21.990Z,18.13
